createdAt,value
2023-03-23T15:59:02.384Z,12.87
2023-03-23T16:04:10.674Z,12.73
2023-03-23T16:09:18.737Z,12.53
2023-03-23T16:14:21.459Z,12.49
2023-03-23T16:19:25.717Z,12.46
2023-03-23T16:24:28.316Z,12.38
2023-03-23T16:29:54.084Z,12.31
2023-03-23T16:34:54.526Z,12.23
2023-03-23T16:39:58.059Z,12.16
2023-03-23T16:45:02.156Z,12.00
2023-03-23T16:50:08.493Z,11.92
2023-03-23T16:55:12.845Z,11.80
2023-03-23T17:00:20.731Z,11.77
2023-03-23T17:05:28.100Z,11.66
2023-03-23T17:10:32.875Z,11.55
2023-03-23T17:15:39.108Z,11.60
2023-03-23T17:20:42.847Z,11.72
2023-03-23T17:25:47.894Z,11.50
2023-03-23T17:30:53.429Z,11.24
2023-03-23T17:35:56.327Z,11.03
2023-03-23T17:41:00.934Z,10.91
2023-03-23T17:46:03.786Z,10.79
2023-03-23T17:51:07.740Z,10.78
2023-03-23T17:56:10.606Z,10.80
2023-03-23T18:01:14.570Z,10.76
2023-03-23T18:06:17.240Z,10.71
2023-03-23T18:11:19.850Z,10.70
2023-03-23T18:16:22.811Z,10.75
2023-03-23T18:21:27.257Z,10.78
2023-03-23T18:26:30.095Z,10.81
2023-03-23T18:31:33.249Z,10.81
2023-03-23T18:36:36.128Z,10.87
2023-03-23T18:41:39.252Z,10.90
2023-03-23T18:46:41.863Z,10.95
2023-03-23T18:51:44.411Z,10.97
2023-03-23T18:56:47.044Z,10.97
2023-03-23T19:01:50.103Z,11.01
2023-03-23T19:06:52.696Z,10.98
2023-03-23T19:11:55.779Z,10.88
2023-03-23T19:16:58.338Z,10.66
2023-03-23T19:22:01.179Z,10.55
2023-03-23T19:27:04.137Z,10.43
2023-03-23T19:32:06.782Z,10.22
2023-03-23T19:37:11.464Z,10.08
2023-03-23T19:42:17.144Z,9.93
2023-03-23T19:47:19.933Z,9.79
2023-03-23T19:52:23.714Z,9.59
2023-03-23T19:57:26.863Z,9.33
2023-03-23T20:02:29.581Z,9.19
2023-03-23T20:07:32.123Z,9.08
2023-03-23T20:12:34.779Z,9.01
2023-03-23T20:17:37.586Z,8.96
2023-03-23T20:22:40.165Z,8.97
2023-03-23T20:27:43.866Z,8.89
2023-03-23T20:32:46.699Z,8.79
2023-03-23T20:37:53.453Z,8.64
2023-03-23T20:42:58.020Z,8.54
2023-03-23T20:48:02.310Z,8.49
2023-03-23T20:53:08.929Z,8.46
2023-03-23T20:58:11.419Z,8.30
2023-03-23T21:03:16.310Z,8.26
2023-03-23T21:08:20.097Z,8.26
2023-03-23T21:13:22.542Z,8.10
2023-03-23T21:18:24.969Z,7.99
2023-03-23T21:23:29.906Z,7.90
2023-03-23T21:28:32.968Z,7.82
2023-03-23T21:33:35.813Z,7.78
2023-03-23T21:38:40.035Z,7.62
2023-03-23T21:43:45.958Z,7.56
2023-03-23T21:48:53.255Z,7.55
2023-03-23T21:53:56.911Z,7.54
2023-03-23T21:59:01.463Z,7.50
2023-03-23T22:04:04.711Z,7.47
2023-03-23T22:09:07.473Z,7.45
2023-03-23T22:14:10.122Z,7.41
2023-03-23T22:19:12.839Z,7.37
2023-03-23T22:24:16.187Z,7.34
2023-03-23T22:29:18.797Z,7.25
2023-03-23T22:34:21.579Z,7.22
2023-03-23T22:39:24.616Z,7.18
2023-03-23T22:44:27.444Z,7.15
2023-03-23T22:49:30.051Z,7.15
2023-03-23T22:54:32.696Z,7.12
2023-03-23T22:59:41.147Z,7.09
2023-03-23T23:04:43.792Z,7.07
2023-03-23T23:09:46.833Z,7.08
2023-03-23T23:14:50.037Z,6.98
2023-03-23T23:19:53.573Z,6.85
2023-03-23T23:24:57.034Z,6.76
2023-03-23T23:30:00.487Z,6.75
2023-03-23T23:35:04.468Z,6.71
2023-03-23T23:40:08.294Z,6.64
2023-03-23T23:45:11.774Z,6.66
2023-03-23T23:50:15.052Z,6.70
2023-03-23T23:55:18.224Z,6.64
